createdAt,value
2018-10-11T00:00:38.711Z,14.17
2018-10-11T00:03:06.241Z,14.11
2018-10-11T00:05:33.721Z,14.06
2018-10-11T00:08:01.111Z,13.96
2018-10-11T00:10:28.726Z,13.88
2018-10-11T00:12:56.145Z,13.81
2018-10-11T00:15:23.583Z,13.76
2018-10-11T00:17:50.943Z,13.73
2018-10-11T00:20:18.499Z,13.77
2018-10-11T00:22:46.045Z,13.79
2018-10-11T00:25:13.537Z,13.80
2018-10-11T00:27:41.023Z,13.82
2018-10-11T00:30:08.675Z,13.78
2018-10-11T00:32:36.134Z,13.74
2018-10-11T00:35:03.942Z,13.70
2018-10-11T00:37:31.473Z,13.66
2018-10-11T00:39:58.967Z,13.60
2018-10-11T00:42:26.479Z,13.58
2018-10-11T00:44:53.925Z,13.53
2018-10-11T00:47:21.445Z,13.50
2018-10-11T00:49:48.984Z,13.44
2018-10-11T00:52:16.590Z,13.41
2018-10-11T00:54:44.013Z,13.37
2018-10-11T00:57:11.543Z,13.39
2018-10-11T00:59:38.923Z,13.42
2018-10-11T01:02:06.415Z,13.44
2018-10-11T01:04:33.941Z,13.48
2018-10-11T01:07:01.353Z,13.50
2018-10-11T01:09:28.947Z,13.50
2018-10-11T01:11:56.448Z,13.55
2018-10-11T01:14:23.839Z,13.58
2018-10-11T01:16:51.320Z,13.57
2018-10-11T01:19:18.804Z,13.63
2018-10-11T01:21:46.347Z,13.70
2018-10-11T01:24:13.818Z,13.70
2018-10-11T01:26:41.359Z,13.58
2018-10-11T01:29:08.763Z,13.57
2018-10-11T01:31:36.225Z,13.53
2018-10-11T01:34:03.692Z,13.47
2018-10-11T01:36:31.136Z,13.42
2018-10-11T01:38:58.557Z,13.37
2018-10-11T01:41:26.038Z,13.31
2018-10-11T01:43:53.626Z,13.22
2018-10-11T01:46:21.209Z,13.16
2018-10-11T01:48:48.773Z,13.10
2018-10-11T01:51:16.263Z,13.04
2018-10-11T01:53:43.740Z,13.05
2018-10-11T01:56:11.349Z,13.12
2018-10-11T01:58:38.910Z,13.09
2018-10-11T02:01:06.497Z,13.11
2018-10-11T02:03:33.957Z,13.12
2018-10-11T02:06:01.387Z,13.14
2018-10-11T02:08:28.839Z,13.17
2018-10-11T02:10:56.733Z,13.15
2018-10-11T02:13:24.101Z,13.13
2018-10-11T02:15:51.547Z,13.13
2018-10-11T02:18:19.023Z,13.11
2018-10-11T02:20:46.437Z,13.07
2018-10-11T02:23:13.926Z,13.04
2018-10-11T02:25:41.425Z,13.02
2018-10-11T02:28:09.402Z,13.03
2018-10-11T02:30:36.934Z,13.01
2018-10-11T02:33:04.653Z,12.98
2018-10-11T02:35:32.055Z,12.96
2018-10-11T02:37:59.551Z,12.91
2018-10-11T02:40:27.131Z,12.89
2018-10-11T02:42:54.544Z,12.83
2018-10-11T02:45:22.121Z,12.80
2018-10-11T02:47:49.578Z,12.74
2018-10-11T02:50:16.997Z,12.71
2018-10-11T02:52:44.381Z,12.71
2018-10-11T02:55:19.608Z,12.69
2018-10-11T02:57:58.750Z,12.66
2018-10-11T03:00:26.507Z,12.62
2018-10-11T03:02:54.121Z,12.59
2018-10-11T03:05:21.651Z,12.56
2018-10-11T03:07:49.190Z,12.53
2018-10-11T03:10:16.670Z,12.50
2018-10-11T03:12:44.225Z,12.50
2018-10-11T03:15:11.760Z,12.49
2018-10-11T03:17:39.144Z,12.47
2018-10-11T03:20:06.633Z,12.49
2018-10-11T03:22:34.377Z,12.52
2018-10-11T03:25:01.866Z,12.52
2018-10-11T03:27:29.371Z,12.55
2018-10-11T03:29:56.964Z,12.54
2018-10-11T03:32:24.503Z,12.54
2018-10-11T03:34:51.875Z,12.52
2018-10-11T03:37:19.356Z,12.50
2018-10-11T03:39:46.739Z,12.45
2018-10-11T03:42:14.317Z,12.40
2018-10-11T03:44:41.773Z,12.34
2018-10-11T03:47:09.252Z,12.31
2018-10-11T03:49:36.824Z,12.31
2018-10-11T03:52:04.281Z,12.29
2018-10-11T03:54:31.802Z,12.27
2018-10-11T03:56:59.293Z,12.25
2018-10-11T03:59:27.084Z,12.25
2018-10-11T04:01:55.277Z,12.25
2018-10-11T04:04:22.964Z,12.23
2018-10-11T04:06:50.545Z,12.23
2018-10-11T04:09:18.096Z,12.21
2018-10-11T04:11:45.609Z,12.21
2018-10-11T04:14:13.175Z,12.21
2018-10-11T04:16:40.599Z,12.17
2018-10-11T04:19:08.334Z,12.22
2018-10-11T04:21:35.839Z,12.19
2018-10-11T04:24:03.306Z,12.14
2018-10-11T04:26:30.724Z,12.11
2018-10-11T04:28:58.294Z,12.11
2018-10-11T04:31:25.798Z,12.12
2018-10-11T04:33:53.350Z,12.08
2018-10-11T04:36:20.974Z,12.01
2018-10-11T04:38:48.374Z,11.96
2018-10-11T04:41:15.944Z,11.95
2018-10-11T04:43:43.782Z,11.91
2018-10-11T04:46:11.395Z,11.88
2018-10-11T04:48:38.904Z,11.85
2018-10-11T04:51:06.617Z,11.85
2018-10-11T04:53:34.296Z,11.79
2018-10-11T04:56:01.764Z,11.72
2018-10-11T04:58:29.298Z,11.68
2018-10-11T05:00:56.749Z,11.66
2018-10-11T05:03:24.150Z,11.66
2018-10-11T05:05:52.418Z,11.66
2018-10-11T05:08:19.894Z,11.67
2018-10-11T05:10:47.352Z,11.69
2018-10-11T05:13:15.198Z,11.68
2018-10-11T05:15:43.658Z,11.67
2018-10-11T05:18:13.563Z,11.65
2018-10-11T05:20:41.145Z,11.62
2018-10-11T05:23:08.560Z,11.58
2018-10-11T05:25:36.074Z,11.55
2018-10-11T05:28:03.641Z,11.50
2018-10-11T05:30:31.136Z,11.47
2018-10-11T05:32:58.627Z,11.48
2018-10-11T05:35:26.095Z,11.48
2018-10-11T05:37:53.633Z,11.49
2018-10-11T05:40:21.159Z,11.54
2018-10-11T05:42:48.685Z,11.55
2018-10-11T05:45:18.974Z,11.57
2018-10-11T05:47:46.700Z,11.64
2018-10-11T05:50:14.299Z,11.67
2018-10-11T05:52:42.939Z,11.70
2018-10-11T05:55:10.886Z,11.76
2018-10-11T05:57:38.487Z,11.80
2018-10-11T06:00:06.950Z,11.90
2018-10-11T06:02:34.545Z,11.97
2018-10-11T06:05:02.016Z,12.06
2018-10-11T06:07:29.764Z,12.09
2018-10-11T06:09:57.240Z,12.13
2018-10-11T06:12:24.788Z,12.26
2018-10-11T06:14:52.305Z,12.62
2018-10-11T06:17:19.793Z,13.78
2018-10-11T06:19:47.330Z,15.31
2018-10-11T06:22:14.845Z,16.90
2018-10-11T06:24:42.307Z,18.45
2018-10-11T06:27:09.698Z,19.70
2018-10-11T06:29:37.178Z,19.74
2018-10-11T06:32:04.652Z,19.15
2018-10-11T06:34:32.205Z,18.82
2018-10-11T06:37:00.326Z,18.93
2018-10-11T06:39:27.881Z,18.77
2018-10-11T06:41:55.500Z,18.47
2018-10-11T06:44:23.095Z,18.04
2018-10-11T06:46:50.910Z,17.70
2018-10-11T06:49:18.534Z,17.79
2018-10-11T06:51:46.062Z,18.10
2018-10-11T06:54:13.541Z,18.43
2018-10-11T06:56:41.898Z,19.19
2018-10-11T06:59:09.280Z,20.92
2018-10-11T07:01:36.887Z,23.22
2018-10-11T07:04:04.487Z,25.48
2018-10-11T07:06:31.963Z,27.32
2018-10-11T07:08:59.326Z,28.86
2018-10-11T07:11:26.783Z,29.87
2018-10-11T07:13:54.260Z,30.79
2018-10-11T07:16:21.672Z,31.45
2018-10-11T07:18:49.646Z,31.90
2018-10-11T07:21:17.232Z,32.42
2018-10-11T07:23:44.623Z,32.91
2018-10-11T07:26:12.227Z,33.19
2018-10-11T07:28:39.676Z,33.70
2018-10-11T07:31:07.268Z,34.63
2018-10-11T07:33:34.783Z,35.25
2018-10-11T07:36:02.262Z,35.37
2018-10-11T07:38:29.781Z,35.49
2018-10-11T07:40:57.266Z,35.42
2018-10-11T07:43:24.759Z,35.53
2018-10-11T07:45:52.163Z,35.86
2018-10-11T07:48:19.701Z,35.99
2018-10-11T07:50:47.119Z,36.39
2018-10-11T07:53:14.713Z,36.70
2018-10-11T07:55:42.179Z,37.08
2018-10-11T07:58:09.563Z,37.57
2018-10-11T08:00:37.029Z,36.38
2018-10-11T08:03:04.567Z,36.32
2018-10-11T08:05:32.066Z,36.98
2018-10-11T08:07:59.439Z,37.01
2018-10-11T08:10:27.230Z,37.13
2018-10-11T08:12:54.566Z,37.94
2018-10-11T08:15:21.997Z,38.30
2018-10-11T08:17:49.771Z,38.77
2018-10-11T08:20:16.981Z,38.87
2018-10-11T08:22:44.371Z,39.30
2018-10-11T08:25:11.931Z,39.60
2018-10-11T08:27:39.271Z,39.64
2018-10-11T08:30:07.398Z,39.55
2018-10-11T08:32:34.968Z,39.06
2018-10-11T08:35:02.283Z,39.24
2018-10-11T08:37:29.757Z,39.53
2018-10-11T08:39:57.366Z,39.39
2018-10-11T08:42:25.021Z,38.92
2018-10-11T08:44:52.450Z,38.78
2018-10-11T08:47:19.885Z,39.00
2018-10-11T08:49:47.365Z,38.77
2018-10-11T08:52:14.815Z,38.36
2018-10-11T08:54:47.033Z,37.96
2018-10-11T08:57:14.890Z,37.48
2018-10-11T08:59:42.588Z,36.97
2018-10-11T09:02:10.149Z,35.82
2018-10-11T09:04:37.542Z,33.98
2018-10-11T09:07:05.022Z,31.93
2018-10-11T09:09:32.841Z,30.23
2018-10-11T09:12:00.314Z,28.46
2018-10-11T09:14:27.894Z,27.27
2018-10-11T09:16:55.370Z,25.94
2018-10-11T09:19:22.814Z,25.00
2018-10-11T09:21:50.241Z,24.35
2018-10-11T09:24:17.685Z,23.62
2018-10-11T09:26:45.204Z,23.15
2018-10-11T09:29:12.634Z,22.95
2018-10-11T09:31:40.121Z,22.90
2018-10-11T09:34:07.614Z,22.65
2018-10-11T09:36:35.208Z,22.32
2018-10-11T09:39:04.546Z,22.09
2018-10-11T09:41:32.002Z,21.87
2018-10-11T09:43:59.406Z,21.72
2018-10-11T09:46:26.850Z,21.69
2018-10-11T09:48:56.372Z,21.62
2018-10-11T09:51:23.953Z,21.64
2018-10-11T09:53:51.414Z,21.55
2018-10-11T09:56:18.960Z,21.52
2018-10-11T09:58:46.485Z,21.44
2018-10-11T10:01:19.829Z,21.34
2018-10-11T10:03:47.415Z,21.28
2018-10-11T10:06:14.941Z,21.14
2018-10-11T10:08:42.426Z,21.24
2018-10-11T10:11:09.953Z,21.32
2018-10-11T10:13:37.477Z,21.28
2018-10-11T10:16:05.151Z,21.33
2018-10-11T10:18:32.699Z,21.32
2018-10-11T10:21:00.198Z,21.29
2018-10-11T10:23:27.593Z,21.29
2018-10-11T10:25:55.023Z,21.23
2018-10-11T10:28:22.471Z,21.23
2018-10-11T10:30:54.398Z,21.23
2018-10-11T10:33:23.256Z,21.23
2018-10-11T10:35:50.733Z,21.29
2018-10-11T10:38:18.690Z,21.37
2018-10-11T10:40:46.202Z,21.38
2018-10-11T10:43:13.631Z,21.34
2018-10-11T10:45:41.222Z,21.37
2018-10-11T10:48:08.840Z,21.46
2018-10-11T10:50:36.232Z,21.37
2018-10-11T10:53:03.736Z,21.36
2018-10-11T10:55:31.174Z,21.44
2018-10-11T10:57:58.586Z,21.53
2018-10-11T11:00:26.330Z,21.61
2018-10-11T11:02:53.732Z,21.67
2018-10-11T11:05:21.230Z,21.72
2018-10-11T11:07:48.704Z,21.69
2018-10-11T11:10:16.130Z,21.69
2018-10-11T11:12:43.660Z,21.75
2018-10-11T11:15:11.282Z,21.80
2018-10-11T11:17:38.790Z,21.82
2018-10-11T11:20:06.272Z,21.88
2018-10-11T11:22:33.850Z,21.90
2018-10-11T11:25:01.480Z,22.00
2018-10-11T11:27:29.246Z,22.16
2018-10-11T11:29:56.724Z,22.10
2018-10-11T11:32:24.129Z,22.11
2018-10-11T11:34:51.522Z,22.14
2018-10-11T11:37:19.418Z,22.04
2018-10-11T11:39:46.810Z,22.03
2018-10-11T11:42:14.237Z,21.94
2018-10-11T11:44:41.684Z,21.83
2018-10-11T11:47:09.123Z,21.80
2018-10-11T11:49:36.608Z,21.80
2018-10-11T11:52:04.116Z,21.81
2018-10-11T11:54:31.584Z,21.85
2018-10-11T11:56:58.996Z,21.90
2018-10-11T11:59:26.438Z,21.96
2018-10-11T12:01:53.871Z,22.01
2018-10-11T12:04:21.289Z,22.08
2018-10-11T12:06:48.746Z,22.16
2018-10-11T12:09:16.145Z,22.19
2018-10-11T12:11:43.646Z,22.25
2018-10-11T12:14:11.093Z,22.31
2018-10-11T12:16:38.935Z,22.37
2018-10-11T12:19:07.146Z,22.41
2018-10-11T12:21:34.571Z,22.48
2018-10-11T12:24:01.974Z,22.50
2018-10-11T12:26:29.440Z,22.43
2018-10-11T12:28:56.951Z,22.38
2018-10-11T12:31:24.355Z,22.39
2018-10-11T12:33:51.777Z,22.30
2018-10-11T12:36:19.238Z,22.17
2018-10-11T12:38:46.715Z,22.13
2018-10-11T12:41:14.095Z,22.17
2018-10-11T12:43:41.623Z,22.22
2018-10-11T12:46:09.045Z,22.38
2018-10-11T12:48:36.551Z,22.50
2018-10-11T12:51:04.087Z,22.62
2018-10-11T12:53:31.561Z,22.78
2018-10-11T12:55:59.009Z,22.89
2018-10-11T12:58:26.651Z,22.98
2018-10-11T13:00:54.124Z,22.93
2018-10-11T13:03:21.612Z,23.08
2018-10-11T13:05:49.184Z,23.08
2018-10-11T13:08:16.648Z,22.91
2018-10-11T13:10:44.122Z,22.76
2018-10-11T13:13:11.885Z,22.69
2018-10-11T13:15:39.294Z,22.72
2018-10-11T13:18:06.749Z,22.66
2018-10-11T13:20:34.177Z,22.65
2018-10-11T13:23:01.677Z,22.57
2018-10-11T13:25:29.074Z,22.50
2018-10-11T13:27:56.534Z,22.46
2018-10-11T13:30:23.978Z,22.41
2018-10-11T13:32:51.722Z,22.36
2018-10-11T13:35:19.217Z,22.32
2018-10-11T13:37:46.658Z,22.36
2018-10-11T13:40:14.190Z,22.45
2018-10-11T13:42:41.726Z,22.61
2018-10-11T13:45:09.258Z,22.82
2018-10-11T13:47:41.217Z,22.98
2018-10-11T13:50:04.744Z,23.26
2018-10-11T13:52:32.158Z,23.61
2018-10-11T13:54:59.582Z,23.92
2018-10-11T13:57:30.495Z,24.21
2018-10-11T13:59:54.501Z,24.40
2018-10-11T14:02:21.944Z,24.47
2018-10-11T14:04:49.391Z,24.59
2018-10-11T14:07:17.017Z,24.64
2018-10-11T14:09:44.546Z,24.64
2018-10-11T14:12:12.017Z,24.72
2018-10-11T14:14:39.586Z,24.72
2018-10-11T14:17:07.064Z,24.71
2018-10-11T14:19:34.535Z,24.66
2018-10-11T14:22:01.999Z,24.56
2018-10-11T14:24:29.531Z,24.58
2018-10-11T14:26:56.976Z,24.63
2018-10-11T14:29:24.354Z,24.73
2018-10-11T14:31:51.910Z,24.88
2018-10-11T14:34:19.366Z,24.95
2018-10-11T14:36:46.840Z,25.02
2018-10-11T14:39:14.384Z,24.98
2018-10-11T14:41:42.017Z,24.84
2018-10-11T14:44:09.455Z,24.49
2018-10-11T14:46:36.959Z,24.33
2018-10-11T14:49:04.454Z,24.27
2018-10-11T14:51:32.028Z,24.18
2018-10-11T14:53:59.674Z,24.04
2018-10-11T14:56:26.990Z,23.90
2018-10-11T14:58:54.833Z,23.87
2018-10-11T15:01:22.314Z,23.90
2018-10-11T15:03:49.790Z,24.00
2018-10-11T15:06:17.262Z,24.03
2018-10-11T15:08:44.690Z,24.04
2018-10-11T15:11:12.308Z,23.99
2018-10-11T15:13:40.296Z,23.89
2018-10-11T15:16:08.196Z,23.79
2018-10-11T15:18:35.994Z,23.57
2018-10-11T15:21:03.526Z,23.38
2018-10-11T15:23:30.971Z,23.14
2018-10-11T15:25:58.472Z,22.91
2018-10-11T15:28:26.224Z,22.75
2018-10-11T15:30:53.746Z,22.62
2018-10-11T15:33:21.165Z,22.53
2018-10-11T15:35:48.653Z,22.43
2018-10-11T15:38:16.126Z,22.33
2018-10-11T15:40:43.632Z,22.26
2018-10-11T15:43:11.126Z,22.17
2018-10-11T15:45:38.680Z,22.13
2018-10-11T15:48:06.464Z,22.06
2018-10-11T15:50:33.940Z,21.98
2018-10-11T15:53:01.384Z,21.83
2018-10-11T15:55:28.967Z,21.73
2018-10-11T15:57:56.410Z,21.61
2018-10-11T16:00:24.059Z,21.49
2018-10-11T16:02:51.981Z,21.41
2018-10-11T16:05:19.463Z,21.38
2018-10-11T16:07:46.954Z,21.28
2018-10-11T16:10:14.574Z,21.17
2018-10-11T16:12:42.011Z,21.06
2018-10-11T16:15:09.463Z,20.98
2018-10-11T16:17:37.146Z,20.95
2018-10-11T16:20:04.884Z,20.85
2018-10-11T16:22:32.322Z,20.75
2018-10-11T16:24:59.854Z,20.80
2018-10-11T16:27:27.464Z,20.78
2018-10-11T16:29:54.920Z,20.79
2018-10-11T16:32:22.539Z,20.75
2018-10-11T16:34:49.970Z,20.67
2018-10-11T16:37:17.408Z,20.53
2018-10-11T16:39:44.925Z,20.40
2018-10-11T16:42:12.557Z,20.27
2018-10-11T16:44:40.044Z,20.19
2018-10-11T16:47:07.563Z,20.12
2018-10-11T16:49:35.016Z,20.09
2018-10-11T16:52:02.481Z,20.07
2018-10-11T16:54:29.991Z,20.10
2018-10-11T16:56:57.423Z,20.11
2018-10-11T16:59:24.854Z,20.17
2018-10-11T17:01:52.445Z,20.23
2018-10-11T17:04:19.908Z,20.30
2018-10-11T17:06:47.387Z,20.30
2018-10-11T17:09:15.062Z,20.32
2018-10-11T17:11:42.535Z,20.24
2018-10-11T17:14:10.079Z,20.20
2018-10-11T17:16:37.596Z,20.18
2018-10-11T17:19:05.158Z,20.22
2018-10-11T17:21:32.663Z,20.30
2018-10-11T17:24:00.083Z,20.25
2018-10-11T17:26:27.736Z,20.16
2018-10-11T17:28:55.408Z,20.03
2018-10-11T17:31:23.129Z,19.94
2018-10-11T17:33:50.672Z,19.85
2018-10-11T17:36:18.370Z,19.78
2018-10-11T17:38:45.991Z,19.74
2018-10-11T17:41:13.551Z,19.68
2018-10-11T17:43:41.009Z,19.62
2018-10-11T17:46:08.728Z,19.53
2018-10-11T17:48:36.153Z,19.45
2018-10-11T17:51:03.843Z,19.38
2018-10-11T17:53:31.285Z,19.29
2018-10-11T17:55:58.749Z,19.22
2018-10-11T17:58:26.324Z,19.14
2018-10-11T18:00:54.021Z,19.10
2018-10-11T18:03:21.492Z,19.03
2018-10-11T18:05:49.309Z,18.98
2018-10-11T18:08:16.809Z,18.91
2018-10-11T18:10:44.329Z,18.80
2018-10-11T18:13:11.871Z,18.69
2018-10-11T18:15:41.337Z,18.63
2018-10-11T18:18:08.993Z,18.58
2018-10-11T18:20:36.615Z,18.56
2018-10-11T18:23:04.147Z,18.59
2018-10-11T18:25:31.662Z,18.55
2018-10-11T18:27:59.192Z,18.50
2018-10-11T18:30:26.926Z,18.46
2018-10-11T18:32:54.406Z,18.43
2018-10-11T18:35:22.369Z,18.40
2018-10-11T18:37:50.177Z,18.36
2018-10-11T18:40:17.830Z,18.34
2018-10-11T18:42:45.362Z,18.31
2018-10-11T18:45:13.035Z,18.31
2018-10-11T18:47:40.658Z,18.30
2018-10-11T18:50:08.178Z,18.27
2018-10-11T18:52:35.820Z,18.22
2018-10-11T18:55:03.468Z,18.15
2018-10-11T18:57:30.894Z,18.12
2018-10-11T18:59:58.544Z,18.06
2018-10-11T19:02:26.066Z,18.01
2018-10-11T19:04:53.602Z,18.02
2018-10-11T19:07:21.216Z,18.02
2018-10-11T19:09:48.710Z,18.03
2018-10-11T19:12:16.822Z,18.02
2018-10-11T19:14:44.613Z,17.98
2018-10-11T19:17:12.869Z,17.97
2018-10-11T19:19:40.528Z,17.95
2018-10-11T19:22:08.661Z,17.93
2018-10-11T19:24:36.929Z,17.95
2018-10-11T19:27:05.485Z,17.96
2018-10-11T19:29:33.101Z,17.97
2018-10-11T19:32:00.689Z,18.00
2018-10-11T19:34:28.295Z,17.97
2018-10-11T19:36:55.759Z,17.95
2018-10-11T19:39:23.358Z,17.90
2018-10-11T19:41:50.779Z,17.84
2018-10-11T19:44:19.297Z,17.78
2018-10-11T19:46:46.952Z,17.71
2018-10-11T19:49:14.475Z,17.65
2018-10-11T19:51:42.816Z,17.59
2018-10-11T19:54:10.529Z,17.55
2018-10-11T19:56:38.217Z,17.52
2018-10-11T19:59:05.886Z,17.50
2018-10-11T20:01:33.434Z,17.49
2018-10-11T20:04:00.947Z,17.44
2018-10-11T20:06:28.422Z,17.38
2018-10-11T20:08:57.028Z,17.32
2018-10-11T20:11:24.747Z,17.23
2018-10-11T20:13:52.497Z,17.14
2018-10-11T20:16:20.040Z,17.08
2018-10-11T20:18:48.086Z,16.99
2018-10-11T20:21:15.655Z,16.87
2018-10-11T20:23:43.067Z,16.73
2018-10-11T20:26:10.576Z,16.57
2018-10-11T20:28:38.051Z,16.46
2018-10-11T20:31:05.782Z,16.32
2018-10-11T20:33:33.209Z,16.19
2018-10-11T20:36:00.749Z,16.05
2018-10-11T20:38:28.281Z,15.94
2018-10-11T20:40:55.723Z,15.87
2018-10-11T20:43:23.329Z,15.80
2018-10-11T20:45:50.737Z,15.71
2018-10-11T20:48:18.389Z,15.65
2018-10-11T20:50:45.846Z,15.68
2018-10-11T20:53:13.416Z,15.78
2018-10-11T20:55:41.059Z,15.91
2018-10-11T20:58:08.470Z,15.97
2018-10-11T21:00:36.158Z,16.04
2018-10-11T21:03:03.598Z,16.08
2018-10-11T21:05:31.021Z,16.12
2018-10-11T21:07:58.549Z,16.20
2018-10-11T21:10:26.018Z,16.29
2018-10-11T21:12:53.604Z,16.34
2018-10-11T21:15:21.080Z,16.34
2018-10-11T21:17:48.470Z,16.32
2018-10-11T21:20:16.055Z,16.37
2018-10-11T21:22:44.304Z,16.42
2018-10-11T21:25:11.979Z,16.46
2018-10-11T21:27:40.860Z,16.46
2018-10-11T21:30:08.551Z,16.48
2018-10-11T21:32:35.975Z,16.50
2018-10-11T21:35:04.065Z,16.50
2018-10-11T21:37:31.944Z,16.47
2018-10-11T21:39:59.342Z,16.41
2018-10-11T21:42:26.744Z,16.36
2018-10-11T21:44:55.049Z,16.34
2018-10-11T21:47:22.676Z,16.33
2018-10-11T21:49:50.344Z,16.35
2018-10-11T21:52:17.921Z,16.39
2018-10-11T21:54:46.724Z,16.39
2018-10-11T21:57:15.134Z,16.38
2018-10-11T21:59:43.550Z,16.34
2018-10-11T22:02:11.336Z,16.24
2018-10-11T22:04:39.419Z,16.16
2018-10-11T22:07:07.190Z,16.09
2018-10-11T22:09:35.711Z,15.97
2018-10-11T22:12:03.587Z,15.88
2018-10-11T22:14:31.136Z,15.77
2018-10-11T22:16:59.587Z,15.68
2018-10-11T22:19:27.869Z,15.62
2018-10-11T22:21:55.521Z,15.69
2018-10-11T22:24:23.006Z,15.77
2018-10-11T22:26:50.964Z,15.78
2018-10-11T22:29:19.517Z,15.75
2018-10-11T22:31:47.561Z,15.74
2018-10-11T22:34:15.974Z,15.79
2018-10-11T22:36:43.594Z,15.79
2018-10-11T22:39:11.602Z,15.79
2018-10-11T22:41:39.902Z,15.73
2018-10-11T22:44:08.034Z,15.62
2018-10-11T22:46:35.651Z,15.51
2018-10-11T22:49:04.160Z,15.36
2018-10-11T22:51:32.201Z,15.20
2018-10-11T22:54:00.578Z,15.08
2018-10-11T22:56:29.363Z,15.00
2018-10-11T22:58:57.837Z,14.90
2018-10-11T23:01:25.393Z,14.82
2018-10-11T23:03:54.097Z,14.79
2018-10-11T23:06:22.714Z,14.80
2018-10-11T23:08:50.163Z,14.82
2018-10-11T23:11:17.715Z,14.77
2018-10-11T23:13:45.305Z,14.72
2018-10-11T23:16:12.874Z,14.60
2018-10-11T23:18:41.270Z,14.55
2018-10-11T23:21:08.991Z,14.59
2018-10-11T23:23:36.398Z,14.59
2018-10-11T23:26:03.866Z,14.54
2018-10-11T23:28:31.274Z,14.48
2018-10-11T23:30:58.814Z,14.36
2018-10-11T23:33:26.325Z,14.27
2018-10-11T23:35:53.777Z,14.22
2018-10-11T23:38:21.205Z,14.12
2018-10-11T23:40:48.796Z,13.99
2018-10-11T23:43:16.292Z,13.90
2018-10-11T23:45:43.871Z,13.85
2018-10-11T23:48:11.355Z,13.88
2018-10-11T23:50:39.037Z,13.86
2018-10-11T23:53:06.443Z,13.84
2018-10-11T23:55:33.953Z,13.77
2018-10-11T23:58:02.312Z,13.69
